Latest Weather Observations for Rundle Island

IDQ60801

Issued at 9:13 pm EST Saturday 9 May 2026 (issued every 10 minutes, with the page automatically refreshed every 10 minutes)

About weather observations | Map of weather stations | Latest weather observations for QLD | Other Formats
Station Details ID: 039322 Name: RUNDLE ISLAND Lat: -23.53 Lon: 151.28 Height: 19.8 m
Data from the previous 72 hours. | See also: Recent months at Rundle Island
Date/Time
EST
Temp
°C
App
Temp
°C
Dew
Point
°C
Rel
Hum
%
Delta-T
°C
Wind Press
QNH
hPa
Press
MSL
hPa
Rain since
9am
mm
Dir  Spd
km/h
Gust
km/h
Spd
kts
Gust
kts
09/09:00pm 22.9 - - - - SE 33 37 18 20 1022.3 1022.2 -
09/08:30pm 22.9 - - - - ESE 33 37 18 20 1022.1 1022.0 -
09/08:00pm 22.8 - - - - SE 33 39 18 21 1021.8 1021.7 -
09/07:30pm 22.9 - - - - SE 35 41 19 22 1021.7 1021.6 -
09/07:00pm 22.9 - - - - ESE 35 39 19 21 1021.2 1021.1 -
09/06:30pm 22.4 - - - - SE 37 44 20 24 1020.9 1020.8 -
09/06:00pm 22.4 - - - - SE 35 39 19 21 1020.5 1020.4 -
09/05:30pm 22.5 - - - - SE 33 37 18 20 1020.4 1020.3 -
09/05:00pm 22.5 - - - - SE 32 39 17 21 1020.1 1020.0 -
09/04:30pm 22.6 - - - - SE 32 39 17 21 1019.7 1019.6 -
09/04:00pm 22.5 - - - - SE 32 35 17 19 1019.5 1019.4 -
09/03:30pm 22.5 - - - - SE 30 35 16 19 1019.2 1019.1 -
09/03:00pm 22.4 - - - - SE 28 32 15 17 1019.2 1019.1 -
09/02:30pm 22.1 - - - - SE 28 32 15 17 1019.1 1019.0 -
09/02:00pm 21.9 - - - - SE 26 30 14 16 1019.1 1019.0 -
09/01:30pm 21.5 - - - - SE 26 28 14 15 1019.3 1019.2 -
09/01:00pm 21.9 - - - - SSE 24 28 13 15 1019.6 1019.5 -
09/12:30pm 21.4 - - - - SSE 20 24 11 13 1020.0 1019.9 -
09/12:00pm 21.0 - - - - SSE 19 24 10 13 1020.5 1020.4 -
09/11:30am 20.4 - - - - SSE 20 24 11 13 1020.7 1020.6 -
09/11:00am 20.0 - - - - SSE 24 30 13 16 1021.1 1021.0 -
09/10:30am 19.7 - - - - SSE 28 32 15 17 1021.4 1021.3 -
09/10:00am 19.4 - - - - SSE 30 39 16 21 1021.7 1021.6 -
09/09:30am 19.1 - - - - SSE 30 35 16 19 1021.6 1021.5 -
09/09:00am 18.8 - - - - SSE 24 32 13 17 1021.4 1021.3 -
09/08:30am 18.0 - - - - S 22 26 12 14 1021.4 1021.3 -
09/08:00am 17.6 - - - - SSW 22 26 12 14 1021.1 1021.0 -
09/07:30am 17.7 - - - - SSW 22 24 12 13 1020.9 1020.8 -
09/07:00am 17.8 - - - - S 20 24 11 13 1020.6 1020.5 -
09/06:30am 17.6 - - - - SSW 22 26 12 14 1019.9 1019.8 -
09/06:00am 17.5 - - - - SSW 22 26 12 14 1019.4 1019.3 -
09/05:30am 17.7 - - - - SSW 22 24 12 13 1019.1 1019.0 -
09/05:00am 17.6 - - - - SSW 24 28 13 15 1018.7 1018.6 -
09/04:30am 17.9 - - - - SSW 26 30 14 16 1018.5 1018.4 -
09/04:00am 18.3 - - - - S 22 28 12 15 1018.5 1018.4 -
09/03:30am 18.4 - - - - SSW 24 26 13 14 1018.5 1018.4 -
09/03:00am 18.6 - - - - SSW 24 28 13 15 1018.7 1018.6 -
09/02:30am 18.6 - - - - SSW 24 28 13 15 1018.9 1018.8 -
09/02:00am 18.9 - - - - S 22 26 12 14 1018.9 1018.8 -
09/01:30am 19.0 - - - - SSW 20 22 11 12 1019.2 1019.1 -
09/01:00am 19.2 - - - - SSW 20 24 11 13 1019.1 1019.0 -
09/12:30am 19.4 - - - - SSW 24 26 13 14 1019.1 1019.0 -
09/12:00am 19.9 - - - - S 24 28 13 15 1019.3 1019.2 -
 
Date/Time
EST
Temp
°C
App
Temp
°C
Dew
Point
°C
Rel
Hum
%
Delta-T
°C
Wind Press
QNH
hPa
Press
MSL
hPa
Rain since
9am
mm
Dir  Spd
km/h
Gust
km/h
Spd
kts
Gust
kts
08/11:30pm 20.0 - - - - S 22 26 12 14 1019.5 1019.4 -
08/11:00pm 20.5 - - - - S 24 28 13 15 1019.6 1019.5 -
08/10:30pm 21.1 - - - - S 28 33 15 18 1019.6 1019.5 -
08/10:00pm 20.9 - - - - S 20 24 11 13 1019.8 1019.7 -
08/09:30pm 20.8 - - - - SSW 17 19 9 10 1020.0 1019.9 -
08/09:00pm 21.1 - - - - SSW 22 26 12 14 1019.9 1019.8 -
08/08:30pm 22.1 - - - - S 28 32 15 17 1019.5 1019.4 -
08/08:00pm 22.6 - - - - SSE 20 26 11 14 1019.1 1019.0 -
08/07:30pm 22.1 - - - - ESE 19 22 10 12 1019.1 1019.0 -
08/07:00pm 21.9 - - - - ESE 19 22 10 12 1018.8 1018.7 -
08/06:30pm 21.8 - - - - ESE 19 22 10 12 1018.4 1018.3 -
08/06:00pm 21.6 - - - - ESE 20 24 11 13 1018.0 1017.9 -
08/05:30pm 21.8 - - - - ESE 22 28 12 15 1017.6 1017.5 -
08/05:00pm 21.6 - - - - ESE 22 26 12 14 1017.3 1017.2 -
08/04:30pm 21.7 - - - - SE 24 28 13 15 1017.1 1017.0 -
08/04:00pm 21.8 - - - - SE 22 26 12 14 1016.9 1016.8 -
08/03:30pm 21.9 - - - - SE 20 24 11 13 1016.7 1016.6 -
08/03:00pm 21.4 - - - - SE 20 24 11 13 1016.7 1016.6 -
08/02:30pm 21.1 - - - - SE 20 22 11 12 1016.8 1016.7 -
08/02:00pm 21.2 - - - - SE 19 24 10 13 1017.1 1017.0 -
08/01:30pm 20.9 - - - - SE 19 22 10 12 1017.4 1017.3 -
08/01:00pm 20.9 - - - - SSE 19 24 10 13 1017.8 1017.7 -
08/12:30pm 20.6 - - - - SSE 19 22 10 12 1018.3 1018.2 -
08/12:00pm 20.8 - - - - SSW 19 24 10 13 1018.8 1018.7 -
08/11:30am 20.7 - - - - SSW 20 24 11 13 1019.2 1019.1 -
08/11:00am 19.8 - - - - SSW 22 28 12 15 1019.6 1019.5 -
08/10:30am 19.5 - - - - SSW 24 32 13 17 1019.9 1019.8 -
08/10:00am 19.1 - - - - SSW 24 28 13 15 1020.2 1020.1 -
08/09:30am 18.4 - - - - SSW 28 32 15 17 1020.2 1020.1 -
08/09:00am 17.8 - - - - SSW 32 37 17 20 1020.1 1020.0 -
08/08:30am 17.7 - - - - SSW 32 37 17 20 1020.0 1019.9 -
08/08:00am 17.7 - - - - SSW 33 39 18 21 1019.8 1019.7 -
08/07:30am 18.1 - - - - SSW 37 43 20 23 1019.3 1019.2 -
08/07:00am 18.1 - - - - SSW 35 43 19 23 1019.0 1018.9 -
08/06:30am 18.2 - - - - SSW 37 43 20 23 1018.5 1018.4 -
08/06:00am 18.7 - - - - SSW 39 44 21 24 1018.1 1018.0 -
08/05:30am 19.1 - - - - SSW 39 43 21 23 1017.5 1017.4 -
08/05:00am 19.3 - - - - SSW 39 44 21 24 1017.4 1017.3 -
08/04:30am 19.8 - - - - SSW 35 41 19 22 1017.1 1017.0 -
08/04:00am 20.3 - - - - SSW 39 44 21 24 1016.8 1016.7 -
08/03:30am 20.7 - - - - SSW 44 50 24 27 1016.3 1016.2 -
08/03:00am 21.2 - - - - S 41 46 22 25 1016.2 1016.1 -
08/02:30am 21.4 - - - - SSW 35 41 19 22 1016.2 1016.1 -
08/02:00am 21.9 - - - - S 32 37 17 20 1016.3 1016.2 -
08/01:30am 22.0 - - - - SSW 32 37 17 20 1016.2 1016.1 -
08/01:00am 22.3 - - - - SSW 33 39 18 21 1016.3 1016.2 -
08/12:30am 22.3 - - - - SSW 28 32 15 17 1016.3 1016.2 -
08/12:00am 22.9 - - - - SSW 28 33 15 18 1016.5 1016.4 -
 
Date/Time
EST
Temp
°C
App
Temp
°C
Dew
Point
°C
Rel
Hum
%
Delta-T
°C
Wind Press
QNH
hPa
Press
MSL
hPa
Rain since
9am
mm
Dir  Spd
km/h
Gust
km/h
Spd
kts
Gust
kts
07/11:30pm 23.0 - - - - SSW 26 32 14 17 1016.7 1016.6 -
07/11:00pm 22.8 - - - - SSW 22 26 12 14 1017.0 1016.9 -
07/10:30pm 23.5 - - - - S 20 28 11 15 1017.0 1016.9 -
07/10:00pm 22.8 - - - - SSW 13 15 7 8 1017.0 1016.9 -
07/09:30pm 22.9 - - - - SSW 11 15 6 8 1017.1 1017.0 -
07/09:00pm 22.9 - - - - SSW 11 11 6 6 1016.9 1016.8 -
07/08:30pm 23.4 - - - - SSW 11 11 6 6 1016.8 1016.7 -
07/08:00pm 23.6 - - - - SSE 7 9 4 5 1016.7 1016.6 -
07/07:30pm 23.7 - - - - E 6 7 3 4 1016.2 1016.1 -
07/07:00pm 23.7 - - - - E 6 7 3 4 1016.0 1015.9 -
07/06:30pm 23.7 - - - - E 7 9 4 5 1015.4 1015.3 -
07/06:00pm 23.8 - - - - ESE 7 9 4 5 1015.3 1015.2 -
07/05:30pm 23.8 - - - - E 9 13 5 7 1014.7 1014.6 -
07/05:00pm 23.9 - - - - E 15 17 8 9 1014.1 1014.0 -
07/04:30pm 23.8 - - - - E 19 20 10 11 1013.8 1013.7 -
07/04:00pm 23.8 - - - - E 17 19 9 10 1013.8 1013.7 -
07/03:30pm 23.8 - - - - E 13 17 7 9 1013.6 1013.5 -
07/03:00pm 23.7 - - - - E 13 15 7 8 1013.6 1013.5 -
07/02:30pm 23.8 - - - - ESE 11 13 6 7 1013.8 1013.7 -
07/02:00pm 23.8 - - - - ESE 13 15 7 8 1013.9 1013.8 -
07/01:30pm 23.7 - - - - SE 15 19 8 10 1014.1 1014.0 -
07/01:00pm 23.8 - - - - SE 17 19 9 10 1014.5 1014.4 -
07/12:30pm 23.6 - - - - SE 13 15 7 8 1014.7 1014.6 -
07/12:00pm 23.5 - - - - SSE 15 15 8 8 1015.1 1015.0 -
07/11:30am 23.3 - - - - S 19 20 10 11 1015.5 1015.4 -
07/11:00am 22.8 - - - - SSE 22 24 12 13 1015.9 1015.8 -
07/10:30am 22.5 - - - - S 22 24 12 13 1016.3 1016.2 -
07/10:00am 22.4 - - - - S 24 26 13 14 1016.4 1016.3 -
07/09:30am 22.3 - - - - S 24 26 13 14 1016.4 1016.3 -
07/09:00am 22.2 - - - - S 24 26 13 14 1016.4 1016.3 -
07/08:30am 22.1 - - - - SSE 26 28 14 15 1016.0 1015.9 -
07/08:00am 22.2 - - - - S 26 30 14 16 1015.9 1015.8 -
07/07:30am 22.3 - - - - S 26 28 14 15 1015.8 1015.7 -
07/07:00am 22.4 - - - - S 26 30 14 16 1015.3 1015.2 -
07/06:30am 22.3 - - - - S 26 28 14 15 1015.0 1014.9 -
07/06:00am 22.4 - - - - S 22 26 12 14 1014.8 1014.7 -
07/05:30am 22.3 - - - - S 22 26 12 14 1014.4 1014.3 -
07/05:00am 22.1 - - - - S 19 22 10 12 1014.1 1014.0 -
07/04:30am 22.0 - - - - S 20 22 11 12 1014.1 1014.0 -
07/04:00am 22.0 - - - - SSW 17 20 9 11 1014.0 1013.9 -
07/03:30am 22.5 - - - - S 19 22 10 12 1014.2 1014.1 -
07/03:00am 22.4 - - - - S 19 22 10 12 1014.4 1014.3 -
07/02:30am 22.4 - - - - S 17 20 9 11 1014.6 1014.5 -
07/02:00am 22.9 - - - - S 19 20 10 11 1014.9 1014.8 -
07/01:30am 22.8 - - - - SSE 19 20 10 11 1015.0 1014.9 -
07/01:00am 22.8 - - - - SSE 19 20 10 11 1015.0 1014.9 -
07/12:30am 23.0 - - - - SSE 19 20 10 11 1015.1 1015.0 -
07/12:00am 23.0 - - - - SSE 20 26 11 14 1015.2 1015.1 -
 
Date/Time
EST
Temp
°C
App
Temp
°C
Dew
Point
°C
Rel
Hum
%
Delta-T
°C
Wind Press
QNH
hPa
Press
MSL
hPa
Rain since
9am
mm
Dir  Spd
km/h
Gust
km/h
Spd
kts
Gust
kts
06/11:30pm 23.4 - - - - SE 22 24 12 13 1015.4 1015.3 -
06/11:00pm 23.4 - - - - SE 22 24 12 13 1015.7 1015.6 -
06/10:30pm 23.5 - - - - SE 22 24 12 13 1015.7 1015.6 -
06/10:00pm 23.5 - - - - SE 22 26 12 14 1015.9 1015.8 -
06/09:30pm 23.5 - - - - SE 24 28 13 15 1016.0 1015.9 -

Other formats

Comma delimited format used in spreadsheet applications
http://www.bom.gov.au/fwo/IDQ60801/IDQ60801.94378.axf

JavaScript Object Notation format (JSON) in row-major order
http://www.bom.gov.au/fwo/IDQ60801/IDQ60801.94378.json

Data quality

Most of these data are generated automatically and are frequently updated. Quality checks on data are not normally performed. It is possible for incorrect values to appear. Refer to information at About Latest Weather Observations and please check the disclaimer before using these data.